createdAt,value
2016-11-02T00:01:12.286Z,1013.53
2016-11-02T00:01:54.002Z,1013.47
2016-11-02T00:04:14.593Z,1013.47
2016-11-02T00:04:56.134Z,1013.48
2016-11-02T00:07:11.641Z,1013.49
2016-11-02T00:07:53.246Z,1013.45
2016-11-02T00:08:34.686Z,1013.44
2016-11-02T00:09:16.181Z,1013.41
2016-11-02T00:13:20.689Z,1013.37
2016-11-02T00:14:02.237Z,1013.38
2016-11-02T00:14:43.661Z,1013.34
2016-11-02T00:15:25.361Z,1013.36
2016-11-02T00:19:45.987Z,1013.37
2016-11-02T00:20:27.743Z,1013.37
2016-11-02T00:22:48.348Z,1013.37
2016-11-02T00:23:30.160Z,1013.35
2016-11-02T00:24:11.870Z,1013.35
2016-11-02T00:24:53.574Z,1013.36
2016-11-02T00:25:35.299Z,1013.38
2016-11-02T00:26:16.974Z,1013.4
2016-11-02T00:26:58.705Z,1013.39
2016-11-02T00:29:19.412Z,1013.42
2016-11-02T00:30:01.146Z,1013.4
2016-11-02T00:30:42.912Z,1013.38
2016-11-02T00:31:24.559Z,1013.39
2016-11-02T00:33:55.675Z,1013.35
2016-11-02T00:34:37.388Z,1013.37
2016-11-02T00:35:18.989Z,1013.36
2016-11-02T00:37:13.782Z,1013.34
2016-11-02T00:37:55.457Z,1013.29
2016-11-02T00:38:37.174Z,1013.31
2016-11-02T00:39:18.951Z,1013.32
2016-11-02T00:40:00.652Z,1013.37
2016-11-02T00:40:42.342Z,1013.35
2016-11-02T00:41:24.092Z,1013.34
2016-11-02T00:42:05.708Z,1013.38
2016-11-02T00:44:00.417Z,1013.35
2016-11-02T00:44:41.911Z,1013.42
2016-11-02T00:45:23.498Z,1013.4
2016-11-02T00:46:05.142Z,1013.4
2016-11-02T00:46:46.934Z,1013.36
2016-11-02T00:47:28.544Z,1013.39
2016-11-02T00:48:10.249Z,1013.36
2016-11-02T00:50:41.392Z,1013.39
2016-11-02T00:51:23.158Z,1013.38
2016-11-02T00:52:04.947Z,1013.36
2016-11-02T00:52:46.625Z,1013.32
2016-11-02T00:54:41.332Z,1013.35
2016-11-02T00:55:23.015Z,1013.36
2016-11-02T00:56:04.761Z,1013.38
2016-11-02T00:56:46.382Z,1013.35
2016-11-02T00:57:28.099Z,1013.37
2016-11-02T01:01:12.194Z,1013.36
2016-11-02T01:03:06.854Z,1013.37
2016-11-02T01:03:48.393Z,1013.38
2016-11-02T01:04:29.911Z,1013.36
2016-11-02T01:05:11.496Z,1013.37
2016-11-02T01:07:26.768Z,1013.31
2016-11-02T01:08:08.570Z,1013.33
2016-11-02T01:08:50.317Z,1013.35
2016-11-02T01:09:32.079Z,1013.35
2016-11-02T01:10:13.689Z,1013.35
2016-11-02T01:12:34.499Z,1013.31
2016-11-02T01:13:16.134Z,1013.33
2016-11-02T01:13:57.805Z,1013.34
2016-11-02T01:14:39.630Z,1013.35
2016-11-02T01:15:21.264Z,1013.33
2016-11-02T01:17:15.888Z,1013.37
2016-11-02T01:17:57.614Z,1013.35
2016-11-02T01:18:39.261Z,1013.35
2016-11-02T01:19:21.012Z,1013.36
2016-11-02T01:20:02.715Z,1013.31
2016-11-02T01:20:44.462Z,1013.33
2016-11-02T01:22:44.632Z,1013.35
2016-11-02T01:23:26.434Z,1013.36
2016-11-02T01:24:08.153Z,1013.35
2016-11-02T01:24:49.809Z,1013.35
2016-11-02T01:27:20.838Z,1013.39
2016-11-02T01:28:02.601Z,1013.4
2016-11-02T01:28:44.328Z,1013.38
2016-11-02T01:29:25.958Z,1013.35
2016-11-02T01:31:41.076Z,1013.33
2016-11-02T01:32:22.665Z,1013.35
2016-11-02T01:33:04.263Z,1013.37
2016-11-02T01:35:34.910Z,1013.3
2016-11-02T01:36:16.558Z,1013.3
2016-11-02T01:38:32.094Z,1013.33
2016-11-02T01:39:13.722Z,1013.31
2016-11-02T01:39:55.353Z,1013.29
2016-11-02T01:40:36.985Z,1013.3
2016-11-02T01:41:18.827Z,1013.28
2016-11-02T01:42:00.508Z,1013.27
2016-11-02T01:42:42.128Z,1013.31
2016-11-02T01:43:23.790Z,1013.33
2016-11-02T01:44:05.532Z,1013.3
2016-11-02T01:44:47.267Z,1013.28
2016-11-02T01:48:51.953Z,1013.3
2016-11-02T01:51:12.605Z,1013.25
2016-11-02T01:51:54.348Z,1013.28
2016-11-02T01:54:15.037Z,1013.32
2016-11-02T01:54:56.730Z,1013.29
2016-11-02T01:55:38.390Z,1013.31
2016-11-02T01:57:33.139Z,1013.3
2016-11-02T01:58:14.845Z,1013.33
2016-11-02T01:58:56.528Z,1013.3
2016-11-02T01:59:37.740Z,1013.3
2016-11-02T02:00:18.266Z,1013.34
2016-11-02T02:00:58.806Z,1013.33
2016-11-02T02:01:39.348Z,1013.34
2016-11-02T02:02:19.846Z,1013.34
2016-11-02T02:03:00.383Z,1013.35
2016-11-02T02:03:40.930Z,1013.34
2016-11-02T02:04:21.468Z,1013.33
2016-11-02T02:05:02.005Z,1013.32
2016-11-02T02:05:42.526Z,1013.32
2016-11-02T02:06:23.055Z,1013.38
2016-11-02T02:07:03.583Z,1013.36
2016-11-02T02:07:44.131Z,1013.36
2016-11-02T02:08:24.667Z,1013.33
2016-11-02T02:09:05.183Z,1013.35
2016-11-02T02:09:45.685Z,1013.35
2016-11-02T02:10:26.221Z,1013.34
2016-11-02T02:11:06.768Z,1013.33
2016-11-02T02:11:47.277Z,1013.37
2016-11-02T02:12:27.794Z,1013.37
2016-11-02T02:13:08.352Z,1013.4
2016-11-02T02:13:48.890Z,1013.4
2016-11-02T02:14:29.438Z,1013.37
2016-11-02T02:15:09.978Z,1013.42
2016-11-02T02:15:50.529Z,1013.39
2016-11-02T02:16:31.037Z,1013.4
2016-11-02T02:17:11.569Z,1013.39
2016-11-02T02:17:52.112Z,1013.37
2016-11-02T02:18:32.637Z,1013.39
2016-11-02T02:19:13.166Z,1013.38
2016-11-02T02:19:53.696Z,1013.39
2016-11-02T02:20:34.233Z,1013.4
2016-11-02T02:21:14.742Z,1013.41
2016-11-02T02:21:55.284Z,1013.41
2016-11-02T02:22:35.820Z,1013.41
2016-11-02T02:23:16.333Z,1013.39
2016-11-02T02:23:56.867Z,1013.39
2016-11-02T02:24:37.393Z,1013.37
2016-11-02T02:25:17.927Z,1013.39
2016-11-02T02:25:58.471Z,1013.38
2016-11-02T02:26:39.013Z,1013.38
2016-11-02T02:27:19.540Z,1013.36
2016-11-02T02:28:00.133Z,1013.36
2016-11-02T02:28:40.605Z,1013.36
2016-11-02T02:29:21.146Z,1013.37
2016-11-02T02:30:01.680Z,1013.37
2016-11-02T02:30:42.203Z,1013.39
2016-11-02T02:31:22.732Z,1013.35
2016-11-02T02:32:03.267Z,1013.38
2016-11-02T02:32:43.785Z,1013.38
2016-11-02T02:33:24.337Z,1013.41
2016-11-02T02:34:04.876Z,1013.39
2016-11-02T02:34:45.417Z,1013.39
2016-11-02T02:35:25.927Z,1013.37
2016-11-02T02:36:06.472Z,1013.41
2016-11-02T02:36:47.006Z,1013.35
2016-11-02T02:37:27.541Z,1013.35
2016-11-02T02:38:08.082Z,1013.37
2016-11-02T02:38:48.587Z,1013.39
2016-11-02T02:39:29.122Z,1013.39
2016-11-02T02:40:09.653Z,1013.38
2016-11-02T02:40:50.178Z,1013.4
2016-11-02T02:41:30.715Z,1013.39
2016-11-02T02:42:11.240Z,1013.39
2016-11-02T02:42:51.778Z,1013.37
2016-11-02T02:43:32.303Z,1013.36
2016-11-02T02:44:12.845Z,1013.35
2016-11-02T02:44:53.373Z,1013.36
2016-11-02T02:45:33.896Z,1013.35
2016-11-02T02:46:14.438Z,1013.35
2016-11-02T02:46:54.958Z,1013.32
2016-11-02T02:47:35.495Z,1013.35
2016-11-02T02:48:16.018Z,1013.37
2016-11-02T02:48:56.553Z,1013.37
2016-11-02T02:49:37.078Z,1013.33
2016-11-02T02:50:17.601Z,1013.31
2016-11-02T02:50:58.152Z,1013.36
2016-11-02T02:51:38.692Z,1013.32
2016-11-02T02:52:19.230Z,1013.33
2016-11-02T02:52:59.768Z,1013.3
2016-11-02T02:53:40.286Z,1013.32
2016-11-02T02:54:20.836Z,1013.31
2016-11-02T02:55:01.374Z,1013.28
2016-11-02T02:55:41.899Z,1013.29
2016-11-02T02:56:22.434Z,1013.3
2016-11-02T02:57:02.962Z,1013.29
2016-11-02T02:57:43.496Z,1013.29
2016-11-02T02:58:24.036Z,1013.3
2016-11-02T02:59:04.568Z,1013.33
2016-11-02T02:59:45.109Z,1013.29
2016-11-02T03:00:25.633Z,1013.29
2016-11-02T03:01:06.165Z,1013.31
2016-11-02T03:01:46.697Z,1013.28
2016-11-02T03:02:27.211Z,1013.28
2016-11-02T03:03:07.746Z,1013.31
2016-11-02T03:03:48.276Z,1013.32
2016-11-02T03:04:28.791Z,1013.3
2016-11-02T03:05:09.321Z,1013.32
2016-11-02T03:05:49.891Z,1013.26
2016-11-02T03:06:30.441Z,1013.3
2016-11-02T03:07:10.975Z,1013.3
2016-11-02T03:07:51.513Z,1013.31
2016-11-02T03:08:32.053Z,1013.25
2016-11-02T03:09:12.594Z,1013.23
2016-11-02T03:09:53.120Z,1013.24
2016-11-02T03:10:33.649Z,1013.24
2016-11-02T03:11:14.170Z,1013.25
2016-11-02T03:11:54.702Z,1013.25
2016-11-02T03:12:35.219Z,1013.22
2016-11-02T03:13:15.747Z,1013.2
2016-11-02T03:13:56.274Z,1013.21
2016-11-02T03:14:36.811Z,1013.16
2016-11-02T03:15:17.351Z,1013.15
2016-11-02T03:15:57.869Z,1013.17
2016-11-02T03:16:38.397Z,1013.15
2016-11-02T03:17:18.934Z,1013.11
2016-11-02T03:17:59.469Z,1013.13
2016-11-02T03:18:40.013Z,1013.08
2016-11-02T03:19:20.550Z,1013.1
2016-11-02T03:20:01.087Z,1013.08
2016-11-02T03:20:41.616Z,1013.09
2016-11-02T03:21:22.140Z,1013.1
2016-11-02T03:22:02.674Z,1013.07
2016-11-02T03:22:43.222Z,1013.07
2016-11-02T03:23:23.774Z,1013.09
2016-11-02T03:24:04.279Z,1013.06
2016-11-02T03:24:44.804Z,1013.02
2016-11-02T03:25:25.331Z,1012.98
2016-11-02T03:26:05.874Z,1012.98
2016-11-02T03:26:46.403Z,1013
2016-11-02T03:27:26.932Z,1012.94
2016-11-02T03:28:07.458Z,1013
2016-11-02T03:28:47.989Z,1012.99
2016-11-02T03:29:28.524Z,1012.95
2016-11-02T03:30:09.062Z,1012.99
2016-11-02T03:30:49.608Z,1012.97
2016-11-02T03:31:30.135Z,1012.99
2016-11-02T03:32:10.674Z,1012.98
2016-11-02T03:32:51.187Z,1012.94
2016-11-02T03:33:31.729Z,1012.97
2016-11-02T03:34:12.266Z,1012.98
2016-11-02T03:34:52.803Z,1012.91
2016-11-02T03:35:33.321Z,1012.94
2016-11-02T03:36:13.850Z,1012.93
2016-11-02T03:36:54.393Z,1012.94
2016-11-02T03:37:34.932Z,1012.92
2016-11-02T03:38:15.459Z,1012.92
2016-11-02T03:38:55.996Z,1012.91
2016-11-02T03:39:36.518Z,1012.89
2016-11-02T03:40:17.034Z,1012.9
2016-11-02T03:40:57.572Z,1012.89
2016-11-02T03:41:38.115Z,1012.9
2016-11-02T03:42:18.639Z,1012.91
2016-11-02T03:42:59.174Z,1012.88
2016-11-02T03:43:39.707Z,1012.84
2016-11-02T03:44:20.237Z,1012.88
2016-11-02T03:45:00.771Z,1012.82
2016-11-02T03:45:41.302Z,1012.82
2016-11-02T03:46:21.841Z,1012.84
2016-11-02T03:47:02.374Z,1012.83
2016-11-02T03:47:42.899Z,1012.83
2016-11-02T03:48:23.437Z,1012.86
2016-11-02T03:49:03.986Z,1012.84
2016-11-02T03:49:44.525Z,1012.81
2016-11-02T03:50:25.048Z,1012.85
2016-11-02T03:51:05.579Z,1012.85
2016-11-02T03:51:46.135Z,1012.84
2016-11-02T03:52:26.653Z,1012.82
2016-11-02T03:53:07.184Z,1012.81
2016-11-02T03:53:47.706Z,1012.83
2016-11-02T03:54:28.233Z,1012.8
2016-11-02T03:55:08.756Z,1012.82
2016-11-02T03:55:49.300Z,1012.8
2016-11-02T03:56:29.830Z,1012.79
2016-11-02T03:57:10.355Z,1012.8
2016-11-02T03:57:50.901Z,1012.8
2016-11-02T03:58:31.436Z,1012.76
2016-11-02T03:59:11.986Z,1012.77
2016-11-02T03:59:52.510Z,1012.82
2016-11-02T04:00:33.050Z,1012.78
2016-11-02T04:01:13.585Z,1012.78
2016-11-02T04:01:54.120Z,1012.76
2016-11-02T04:02:34.640Z,1012.77
2016-11-02T04:03:15.178Z,1012.74
2016-11-02T04:03:55.720Z,1012.82
2016-11-02T04:04:36.246Z,1012.78
2016-11-02T04:05:16.768Z,1012.82
2016-11-02T04:05:57.287Z,1012.79
2016-11-02T04:06:37.821Z,1012.77
2016-11-02T04:07:18.360Z,1012.83
2016-11-02T04:07:58.880Z,1012.83
2016-11-02T04:08:39.434Z,1012.8
2016-11-02T04:09:19.999Z,1012.82
2016-11-02T04:10:00.539Z,1012.82
2016-11-02T04:10:41.057Z,1012.83
2016-11-02T04:11:21.561Z,1012.82
2016-11-02T04:12:02.096Z,1012.85
2016-11-02T04:12:42.627Z,1012.79
2016-11-02T04:13:23.161Z,1012.83
2016-11-02T04:14:03.688Z,1012.81
2016-11-02T04:14:44.217Z,1012.83
2016-11-02T04:15:24.770Z,1012.85
2016-11-02T04:16:05.327Z,1012.84
2016-11-02T04:16:45.840Z,1012.86
2016-11-02T04:17:26.386Z,1012.85
2016-11-02T04:18:06.991Z,1012.84
2016-11-02T04:18:47.522Z,1012.89
2016-11-02T04:19:28.052Z,1012.94
2016-11-02T04:20:08.585Z,1012.83
2016-11-02T04:20:49.116Z,1012.82
2016-11-02T04:21:29.653Z,1012.8
2016-11-02T04:22:10.198Z,1012.79
2016-11-02T04:22:50.717Z,1012.78
2016-11-02T04:23:31.243Z,1012.78
2016-11-02T04:24:11.765Z,1012.74
2016-11-02T04:24:52.286Z,1012.71
2016-11-02T04:25:32.831Z,1012.69
2016-11-02T04:26:13.369Z,1012.7
2016-11-02T04:26:53.887Z,1012.73
2016-11-02T04:27:34.418Z,1012.69
2016-11-02T04:28:14.982Z,1012.7
2016-11-02T04:28:55.501Z,1012.69
2016-11-02T04:29:36.041Z,1012.68
2016-11-02T04:30:16.573Z,1012.67
2016-11-02T04:30:57.109Z,1012.69
2016-11-02T04:31:37.620Z,1012.71
2016-11-02T04:32:18.147Z,1012.71
2016-11-02T04:32:58.689Z,1012.71
2016-11-02T04:33:39.223Z,1012.72
2016-11-02T04:34:19.780Z,1012.7
2016-11-02T04:35:00.353Z,1012.73
2016-11-02T04:35:40.883Z,1012.75
2016-11-02T04:36:21.419Z,1012.75
2016-11-02T04:37:01.947Z,1012.76
2016-11-02T04:37:42.462Z,1012.75
2016-11-02T04:38:23.006Z,1012.79
2016-11-02T04:39:03.534Z,1012.77
2016-11-02T04:39:44.073Z,1012.82
2016-11-02T04:40:24.593Z,1012.78
2016-11-02T04:41:05.127Z,1012.8
2016-11-02T04:41:45.652Z,1012.79
2016-11-02T04:42:26.194Z,1012.8
2016-11-02T04:43:06.726Z,1012.78
2016-11-02T04:43:47.239Z,1012.81
2016-11-02T04:44:27.756Z,1012.82
2016-11-02T04:45:08.289Z,1012.81
2016-11-02T04:45:48.838Z,1012.78
2016-11-02T04:46:29.364Z,1012.79
2016-11-02T04:47:10.121Z,1012.77
2016-11-02T04:47:50.853Z,1012.8
2016-11-02T04:48:31.374Z,1012.78
2016-11-02T04:49:11.897Z,1012.76
2016-11-02T04:49:52.425Z,1012.76
2016-11-02T04:50:32.937Z,1012.77
2016-11-02T04:51:13.457Z,1012.74
2016-11-02T04:51:54.000Z,1012.72
2016-11-02T04:52:34.550Z,1012.71
2016-11-02T04:53:15.044Z,1012.67
2016-11-02T04:53:55.572Z,1012.69
2016-11-02T04:54:36.143Z,1012.69
2016-11-02T04:55:16.758Z,1012.67
2016-11-02T04:55:57.355Z,1012.65
2016-11-02T04:56:37.981Z,1012.65
2016-11-02T04:57:18.528Z,1012.68
2016-11-02T04:57:59.056Z,1012.68
2016-11-02T04:58:39.580Z,1012.67
2016-11-02T04:59:20.105Z,1012.64
2016-11-02T05:00:00.633Z,1012.69
2016-11-02T05:00:41.162Z,1012.66
2016-11-02T05:01:21.676Z,1012.66
2016-11-02T05:02:02.205Z,1012.67
2016-11-02T05:02:42.755Z,1012.69
2016-11-02T05:03:23.277Z,1012.64
2016-11-02T05:04:03.810Z,1012.65
2016-11-02T05:04:44.346Z,1012.64
2016-11-02T05:05:24.853Z,1012.64
2016-11-02T05:06:05.401Z,1012.66
2016-11-02T05:06:45.925Z,1012.61
2016-11-02T05:07:26.487Z,1012.59
2016-11-02T05:08:07.019Z,1012.62
2016-11-02T05:08:47.556Z,1012.63
2016-11-02T05:09:28.259Z,1012.64
2016-11-02T05:10:08.633Z,1012.65
2016-11-02T05:10:49.161Z,1012.63
2016-11-02T05:11:29.702Z,1012.62
2016-11-02T05:12:10.243Z,1012.62
2016-11-02T05:12:50.773Z,1012.63
2016-11-02T05:13:31.318Z,1012.59
2016-11-02T05:14:11.858Z,1012.59
2016-11-02T05:14:52.426Z,1012.61
2016-11-02T05:15:32.972Z,1012.62
2016-11-02T05:16:13.465Z,1012.6
2016-11-02T05:16:53.965Z,1012.63
2016-11-02T05:17:34.484Z,1012.61
2016-11-02T05:18:15.015Z,1012.6
2016-11-02T05:18:55.546Z,1012.6
2016-11-02T05:19:36.083Z,1012.56
2016-11-02T05:20:16.707Z,1012.6
2016-11-02T05:20:57.206Z,1012.62
2016-11-02T05:21:37.755Z,1012.55
2016-11-02T05:22:18.283Z,1012.52
2016-11-02T05:22:59.282Z,1012.53
2016-11-02T05:23:39.788Z,1012.55
2016-11-02T05:24:20.305Z,1012.54
2016-11-02T05:25:00.841Z,1012.5
2016-11-02T05:25:41.358Z,1012.54
2016-11-02T05:26:21.868Z,1012.51
2016-11-02T05:27:02.387Z,1012.52
2016-11-02T05:27:42.921Z,1012.55
2016-11-02T05:28:23.509Z,1012.56
2016-11-02T05:29:04.301Z,1012.54
2016-11-02T05:29:44.952Z,1012.53
2016-11-02T05:30:25.773Z,1012.53
2016-11-02T05:31:06.495Z,1012.54
2016-11-02T05:31:47.088Z,1012.54
2016-11-02T05:32:27.671Z,1012.55
2016-11-02T05:33:08.200Z,1012.52
2016-11-02T05:33:48.737Z,1012.53
2016-11-02T05:34:29.264Z,1012.56
2016-11-02T05:37:03.865Z,1012.51
2016-11-02T05:37:44.397Z,1012.56
2016-11-02T05:38:24.933Z,1012.57
2016-11-02T05:39:05.453Z,1012.59
2016-11-02T05:39:45.982Z,1012.57
2016-11-02T05:40:26.527Z,1012.57
2016-11-02T05:41:07.055Z,1012.55
2016-11-02T05:41:47.586Z,1012.58
2016-11-02T05:42:28.088Z,1012.59
2016-11-02T05:43:08.748Z,1012.57
2016-11-02T05:43:49.280Z,1012.58
2016-11-02T05:44:29.790Z,1012.61
2016-11-02T05:45:10.319Z,1012.55
2016-11-02T05:45:50.863Z,1012.58
2016-11-02T05:46:31.355Z,1012.58
2016-11-02T05:47:11.848Z,1012.61
2016-11-02T05:47:52.353Z,1012.64
2016-11-02T05:48:32.879Z,1012.63
2016-11-02T05:49:13.390Z,1012.63
2016-11-02T05:49:53.933Z,1012.63
2016-11-02T05:50:34.473Z,1012.63
2016-11-02T05:51:15.005Z,1012.58
2016-11-02T05:51:55.544Z,1012.61
2016-11-02T05:52:36.050Z,1012.63
2016-11-02T05:53:16.558Z,1012.62
2016-11-02T05:53:57.093Z,1012.59
2016-11-02T05:54:37.641Z,1012.59
2016-11-02T05:55:18.170Z,1012.56
2016-11-02T05:55:58.679Z,1012.6
2016-11-02T05:56:39.213Z,1012.59
2016-11-02T05:57:19.744Z,1012.57
2016-11-02T05:58:00.271Z,1012.58
2016-11-02T05:58:40.787Z,1012.55
2016-11-02T05:59:21.324Z,1012.56
2016-11-02T06:00:01.862Z,1012.55
2016-11-02T06:00:42.377Z,1012.56
2016-11-02T06:01:22.933Z,1012.54
2016-11-02T06:02:03.436Z,1012.57
2016-11-02T06:02:43.976Z,1012.57
2016-11-02T06:03:24.507Z,1012.56
2016-11-02T06:04:05.039Z,1012.58
2016-11-02T06:04:45.549Z,1012.54
2016-11-02T06:05:26.078Z,1012.59
2016-11-02T06:06:06.608Z,1012.59
2016-11-02T06:06:47.149Z,1012.61
2016-11-02T06:07:27.669Z,1012.57
2016-11-02T06:08:08.193Z,1012.6
2016-11-02T06:08:48.739Z,1012.6
2016-11-02T06:09:29.268Z,1012.6
2016-11-02T06:10:09.800Z,1012.59
2016-11-02T06:10:50.339Z,1012.59
2016-11-02T06:11:30.845Z,1012.58
2016-11-02T06:12:11.374Z,1012.6
2016-11-02T06:12:51.898Z,1012.61
2016-11-02T06:13:32.443Z,1012.63
2016-11-02T06:14:12.960Z,1012.6
2016-11-02T06:14:53.481Z,1012.61
2016-11-02T06:15:34.005Z,1012.61
2016-11-02T06:16:14.543Z,1012.63
2016-11-02T06:16:55.063Z,1012.59
2016-11-02T06:17:35.593Z,1012.6
2016-11-02T06:18:16.126Z,1012.61
2016-11-02T06:18:56.664Z,1012.63
2016-11-02T06:19:37.213Z,1012.66
2016-11-02T06:20:17.752Z,1012.61
2016-11-02T06:20:58.283Z,1012.59
2016-11-02T06:21:38.820Z,1012.59
2016-11-02T06:22:19.344Z,1012.61
2016-11-02T06:22:59.869Z,1012.59
2016-11-02T06:23:40.406Z,1012.55
2016-11-02T06:24:20.945Z,1012.6
2016-11-02T06:25:01.524Z,1012.57
2016-11-02T06:25:42.057Z,1012.56
2016-11-02T06:26:22.590Z,1012.61
2016-11-02T06:27:03.127Z,1012.59
2016-11-02T06:27:43.640Z,1012.64
2016-11-02T06:28:24.153Z,1012.61
2016-11-02T06:29:04.663Z,1012.59
2016-11-02T06:29:45.177Z,1012.63
2016-11-02T06:30:25.721Z,1012.62
2016-11-02T06:31:06.229Z,1012.66
2016-11-02T06:31:46.759Z,1012.66
2016-11-02T06:32:27.267Z,1012.69
2016-11-02T06:33:07.822Z,1012.67
2016-11-02T06:33:48.349Z,1012.68
2016-11-02T06:34:28.886Z,1012.7
2016-11-02T06:35:09.422Z,1012.71
2016-11-02T06:35:49.957Z,1012.69
2016-11-02T06:36:30.482Z,1012.71
2016-11-02T06:37:11.021Z,1012.7
2016-11-02T06:37:51.549Z,1012.67
2016-11-02T06:38:32.146Z,1012.68
2016-11-02T06:39:12.720Z,1012.74
2016-11-02T06:39:53.256Z,1012.68
2016-11-02T06:40:33.806Z,1012.67
2016-11-02T06:41:14.336Z,1012.7
2016-11-02T06:41:54.876Z,1012.67
2016-11-02T06:42:35.388Z,1012.71
2016-11-02T06:43:15.926Z,1012.73
2016-11-02T06:43:56.465Z,1012.75
2016-11-02T06:44:36.991Z,1012.77
2016-11-02T06:45:17.522Z,1012.74
2016-11-02T06:45:58.056Z,1012.77
2016-11-02T06:46:38.565Z,1012.74
2016-11-02T06:47:19.103Z,1012.76
2016-11-02T06:47:59.620Z,1012.77
2016-11-02T06:48:40.142Z,1012.76
2016-11-02T06:49:20.672Z,1012.75
2016-11-02T06:50:01.217Z,1012.75
2016-11-02T06:50:41.763Z,1012.76
2016-11-02T06:51:22.283Z,1012.76
2016-11-02T06:52:02.804Z,1012.78
2016-11-02T06:52:43.322Z,1012.77
2016-11-02T06:53:23.837Z,1012.81
2016-11-02T06:54:04.361Z,1012.79
2016-11-02T06:54:44.903Z,1012.78
2016-11-02T06:55:25.423Z,1012.8
2016-11-02T06:56:05.938Z,1012.82
2016-11-02T06:56:46.454Z,1012.8
2016-11-02T06:57:26.988Z,1012.82
2016-11-02T06:58:07.520Z,1012.86
2016-11-02T06:58:48.033Z,1012.84
2016-11-02T06:59:28.559Z,1012.82
2016-11-02T07:00:09.070Z,1012.89
2016-11-02T07:00:49.607Z,1012.85
2016-11-02T07:01:30.136Z,1012.87
2016-11-02T07:02:10.685Z,1012.86
2016-11-02T07:02:51.204Z,1012.88
2016-11-02T07:03:31.740Z,1012.87
2016-11-02T07:04:12.259Z,1012.85
2016-11-02T07:04:52.779Z,1012.88
2016-11-02T07:05:33.314Z,1012.86
2016-11-02T07:06:13.843Z,1012.88
2016-11-02T07:06:54.353Z,1012.9
2016-11-02T07:07:34.872Z,1012.91
2016-11-02T07:08:15.366Z,1012.94
2016-11-02T07:08:55.901Z,1012.92
2016-11-02T07:09:36.451Z,1012.94
2016-11-02T07:10:16.990Z,1012.94
2016-11-02T07:10:57.553Z,1012.93
2016-11-02T07:11:38.095Z,1012.93
2016-11-02T07:12:18.642Z,1012.95
2016-11-02T07:12:59.183Z,1012.91
2016-11-02T07:13:39.713Z,1012.96
2016-11-02T07:14:20.237Z,1012.96
2016-11-02T07:15:00.769Z,1012.98
2016-11-02T07:15:41.310Z,1012.97
2016-11-02T07:16:21.847Z,1012.96
2016-11-02T07:17:02.389Z,1013
2016-11-02T07:17:42.924Z,1012.96
2016-11-02T07:18:23.436Z,1012.95
2016-11-02T07:19:03.974Z,1012.94
2016-11-02T07:19:44.511Z,1013.01
2016-11-02T07:20:25.050Z,1013.03
2016-11-02T07:21:05.578Z,1013
2016-11-02T07:21:46.091Z,1013.03
2016-11-02T07:22:26.614Z,1013.01
2016-11-02T07:23:07.142Z,1013.01
2016-11-02T07:23:47.676Z,1013.06
2016-11-02T07:24:28.203Z,1013.04
2016-11-02T07:25:08.724Z,1013.04
2016-11-02T07:25:49.261Z,1013.05
2016-11-02T07:26:29.811Z,1013.05
2016-11-02T07:27:10.346Z,1013.04
2016-11-02T07:27:50.862Z,1013.04
2016-11-02T07:28:31.478Z,1013.03
2016-11-02T07:29:11.967Z,1013.03
2016-11-02T07:29:52.476Z,1013.04
2016-11-02T07:30:33.009Z,1013.05
2016-11-02T07:31:13.561Z,1013.05
2016-11-02T07:31:54.110Z,1013.03
2016-11-02T07:32:34.663Z,1013.01
2016-11-02T07:33:15.192Z,1013.04
2016-11-02T07:33:55.696Z,1012.99
2016-11-02T07:34:36.229Z,1013.01
2016-11-02T07:35:17.110Z,1013.05
2016-11-02T07:35:57.622Z,1013.07
2016-11-02T07:36:38.170Z,1013.03
2016-11-02T07:37:18.697Z,1013.01
2016-11-02T07:37:59.211Z,1013
2016-11-02T07:38:39.728Z,1013.02
2016-11-02T07:39:20.259Z,1013.05
2016-11-02T07:40:00.832Z,1013.02
2016-11-02T07:40:41.364Z,1013.02
2016-11-02T07:41:21.909Z,1013.01
2016-11-02T07:42:02.421Z,1013.03
2016-11-02T07:42:42.930Z,1013.04
2016-11-02T07:43:23.480Z,1012.99
2016-11-02T07:44:04.023Z,1013.05
2016-11-02T07:44:44.597Z,1013.02
2016-11-02T07:45:25.161Z,1013.01
2016-11-02T07:46:05.694Z,1013.06
2016-11-02T07:46:46.237Z,1013.05
2016-11-02T07:47:26.774Z,1013.07
2016-11-02T07:48:07.359Z,1013.07
2016-11-02T07:48:47.882Z,1013.03
2016-11-02T07:49:28.404Z,1013.07
2016-11-02T07:50:08.934Z,1013.06
2016-11-02T07:50:49.456Z,1013.11
2016-11-02T07:51:29.980Z,1013.07
2016-11-02T07:52:10.510Z,1013.1
2016-11-02T07:52:51.037Z,1013.06
2016-11-02T07:53:31.552Z,1013.08
2016-11-02T07:54:12.095Z,1013.08
2016-11-02T07:54:52.629Z,1013.09
2016-11-02T07:55:33.162Z,1013.1
2016-11-02T07:56:13.684Z,1013.13
2016-11-02T07:56:54.221Z,1013.1
2016-11-02T07:57:34.752Z,1013.09
2016-11-02T07:58:15.281Z,1013.1
2016-11-02T07:58:55.812Z,1013.13
2016-11-02T07:59:36.359Z,1013.13
2016-11-02T08:00:17.057Z,1013.12
2016-11-02T08:00:57.580Z,1013.13
2016-11-02T08:01:38.137Z,1013.12
2016-11-02T08:02:18.660Z,1013.11
2016-11-02T08:02:59.202Z,1013.12
2016-11-02T08:03:39.733Z,1013.1
2016-11-02T08:04:20.226Z,1013.07
2016-11-02T08:05:00.784Z,1013.13
2016-11-02T08:05:41.348Z,1013.09
2016-11-02T08:06:21.881Z,1013.1
2016-11-02T08:07:02.408Z,1013.11
2016-11-02T08:07:42.963Z,1013.11
2016-11-02T08:08:23.488Z,1013.11
2016-11-02T08:09:04.001Z,1013.12
2016-11-02T08:09:44.543Z,1013.13
2016-11-02T08:10:25.071Z,1013.13
2016-11-02T08:11:05.588Z,1013.13
2016-11-02T08:11:46.113Z,1013.11
2016-11-02T08:12:26.648Z,1013.13
2016-11-02T08:13:07.199Z,1013.14
2016-11-02T08:13:47.760Z,1013.14
2016-11-02T08:14:28.230Z,1013.13
2016-11-02T08:15:08.770Z,1013.12
2016-11-02T08:15:49.290Z,1013.16
2016-11-02T08:16:29.812Z,1013.18
2016-11-02T08:17:10.317Z,1013.14
2016-11-02T08:17:50.904Z,1013.14
2016-11-02T08:18:31.508Z,1013.14
2016-11-02T08:19:12.049Z,1013.17
2016-11-02T08:19:52.608Z,1013.16
2016-11-02T08:20:33.139Z,1013.16
2016-11-02T08:21:13.648Z,1013.15
2016-11-02T08:21:54.179Z,1013.16
2016-11-02T08:22:34.706Z,1013.16
2016-11-02T08:23:15.255Z,1013.15
2016-11-02T08:23:55.766Z,1013.18
2016-11-02T08:24:36.382Z,1013.2
2016-11-02T08:25:16.853Z,1013.23
2016-11-02T08:25:57.404Z,1013.17
2016-11-02T08:26:37.898Z,1013.17
2016-11-02T08:27:18.471Z,1013.14
2016-11-02T08:27:58.960Z,1013.17
2016-11-02T08:28:39.506Z,1013.15
2016-11-02T08:29:20.031Z,1013.16
2016-11-02T08:30:00.550Z,1013.1
2016-11-02T08:30:41.086Z,1013.14
2016-11-02T08:31:21.659Z,1013.13
2016-11-02T08:32:02.200Z,1013.12
2016-11-02T08:32:42.724Z,1013.15
2016-11-02T08:33:23.321Z,1013.13
2016-11-02T08:34:03.868Z,1013.15
2016-11-02T08:34:44.398Z,1013.14
2016-11-02T08:35:24.975Z,1013.19
2016-11-02T08:36:05.466Z,1013.19
2016-11-02T08:36:45.966Z,1013.2
2016-11-02T08:37:26.522Z,1013.22
2016-11-02T08:38:07.067Z,1013.23
2016-11-02T08:38:47.597Z,1013.22
2016-11-02T08:39:28.112Z,1013.24
2016-11-02T08:40:08.638Z,1013.23
2016-11-02T08:40:49.169Z,1013.25
2016-11-02T08:41:29.714Z,1013.26
2016-11-02T08:42:10.228Z,1013.26
2016-11-02T08:42:50.770Z,1013.27
2016-11-02T08:43:31.280Z,1013.28
2016-11-02T08:44:11.818Z,1013.23
2016-11-02T08:44:52.349Z,1013.26
2016-11-02T08:45:32.876Z,1013.26
2016-11-02T08:46:13.389Z,1013.29
2016-11-02T08:46:53.911Z,1013.29
2016-11-02T08:47:34.435Z,1013.28
2016-11-02T08:48:14.939Z,1013.27
2016-11-02T08:48:55.586Z,1013.3
2016-11-02T08:49:36.113Z,1013.28
2016-11-02T08:50:16.641Z,1013.28
2016-11-02T08:50:57.170Z,1013.3
2016-11-02T08:51:37.728Z,1013.26
2016-11-02T08:52:18.261Z,1013.28
2016-11-02T08:52:58.776Z,1013.3
2016-11-02T08:53:39.314Z,1013.29
2016-11-02T08:54:19.844Z,1013.28
2016-11-02T08:55:00.399Z,1013.27
2016-11-02T08:55:40.967Z,1013.29
2016-11-02T08:56:21.463Z,1013.3
2016-11-02T08:57:01.968Z,1013.31
2016-11-02T08:57:42.490Z,1013.26
2016-11-02T08:58:23.018Z,1013.3
2016-11-02T08:59:03.581Z,1013.37
2016-11-02T08:59:44.074Z,1013.27
2016-11-02T09:00:24.611Z,1013.31
2016-11-02T09:01:05.147Z,1013.28
2016-11-02T09:01:45.666Z,1013.29
2016-11-02T09:02:26.181Z,1013.3